sensor_id;sensor_type;location;lat;lon;timestamp;P1;durP1;ratioP1;P2;durP2;ratioP2
14965;SDS011;7577;45.226;5.798;2023-04-01T00:01:27;11.47;;;5.83;;
14965;SDS011;7577;45.226;5.798;2023-04-01T00:03:58;11.77;;;5.90;;
14965;SDS011;7577;45.226;5.798;2023-04-01T00:06:29;12.13;;;5.50;;
14965;SDS011;7577;45.226;5.798;2023-04-01T00:09:09;14.30;;;5.67;;
14965;SDS011;7577;45.226;5.798;2023-04-01T00:11:40;14.03;;;6.30;;
14965;SDS011;7577;45.226;5.798;2023-04-01T00:14:12;11.77;;;6.23;;
14965;SDS011;7577;45.226;5.798;2023-04-01T00:16:42;10.53;;;5.37;;
14965;SDS011;7577;45.226;5.798;2023-04-01T00:19:12;11.67;;;5.60;;
14965;SDS011;7577;45.226;5.798;2023-04-01T00:21:42;11.67;;;5.57;;
14965;SDS011;7577;45.226;5.798;2023-04-01T00:24:19;11.53;;;5.13;;
14965;SDS011;7577;45.226;5.798;2023-04-01T00:26:50;10.60;;;5.53;;
14965;SDS011;7577;45.226;5.798;2023-04-01T00:29:20;8.93;;;5.23;;
14965;SDS011;7577;45.226;5.798;2023-04-01T00:31:51;10.67;;;5.30;;
14965;SDS011;7577;45.226;5.798;2023-04-01T00:34:21;10.20;;;5.53;;
14965;SDS011;7577;45.226;5.798;2023-04-01T00:36:51;11.13;;;5.30;;
14965;SDS011;7577;45.226;5.798;2023-04-01T00:39:22;10.23;;;5.03;;
14965;SDS011;7577;45.226;5.798;2023-04-01T00:41:52;10.17;;;4.80;;
14965;SDS011;7577;45.226;5.798;2023-04-01T00:44:25;9.43;;;4.80;;
14965;SDS011;7577;45.226;5.798;2023-04-01T00:46:56;9.20;;;4.37;;
14965;SDS011;7577;45.226;5.798;2023-04-01T00:49:35;8.37;;;4.37;;
14965;SDS011;7577;45.226;5.798;2023-04-01T00:52:08;12.30;;;4.77;;
14965;SDS011;7577;45.226;5.798;2023-04-01T00:54:39;9.07;;;4.23;;
14965;SDS011;7577;45.226;5.798;2023-04-01T00:57:13;7.47;;;4.20;;
14965;SDS011;7577;45.226;5.798;2023-04-01T00:59:52;8.83;;;4.30;;
14965;SDS011;7577;45.226;5.798;2023-04-01T01:02:23;8.63;;;4.10;;
14965;SDS011;7577;45.226;5.798;2023-04-01T01:04:53;8.03;;;3.70;;
14965;SDS011;7577;45.226;5.798;2023-04-01T01:07:26;8.50;;;4.03;;
14965;SDS011;7577;45.226;5.798;2023-04-01T01:09:59;7.30;;;3.83;;
14965;SDS011;7577;45.226;5.798;2023-04-01T01:12:33;6.97;;;3.90;;
14965;SDS011;7577;45.226;5.798;2023-04-01T01:15:07;8.10;;;4.20;;
14965;SDS011;7577;45.226;5.798;2023-04-01T01:17:45;6.97;;;3.63;;
14965;SDS011;7577;45.226;5.798;2023-04-01T01:20:33;6.07;;;3.23;;
14965;SDS011;7577;45.226;5.798;2023-04-01T01:23:25;8.23;;;3.73;;
14965;SDS011;7577;45.226;5.798;2023-04-01T01:29:35;6.63;;;3.20;;
14965;SDS011;7577;45.226;5.798;2023-04-01T01:32:43;8.37;;;3.83;;
14965;SDS011;7577;45.226;5.798;2023-04-01T01:35:27;6.43;;;3.20;;
14965;SDS011;7577;45.226;5.798;2023-04-01T01:37:59;6.23;;;3.43;;
14965;SDS011;7577;45.226;5.798;2023-04-01T01:40:31;6.60;;;3.27;;
14965;SDS011;7577;45.226;5.798;2023-04-01T01:43:05;6.93;;;3.10;;
14965;SDS011;7577;45.226;5.798;2023-04-01T01:45:39;6.60;;;3.50;;
14965;SDS011;7577;45.226;5.798;2023-04-01T01:48:12;5.83;;;2.97;;
14965;SDS011;7577;45.226;5.798;2023-04-01T01:50:43;6.47;;;3.00;;
14965;SDS011;7577;45.226;5.798;2023-04-01T01:53:15;6.27;;;3.20;;
14965;SDS011;7577;45.226;5.798;2023-04-01T01:55:46;5.77;;;2.77;;
14965;SDS011;7577;45.226;5.798;2023-04-01T01:58:18;6.17;;;2.93;;
14965;SDS011;7577;45.226;5.798;2023-04-01T02:00:50;6.07;;;3.07;;
14965;SDS011;7577;45.226;5.798;2023-04-01T02:03:23;5.87;;;2.70;;
14965;SDS011;7577;45.226;5.798;2023-04-01T02:05:56;5.43;;;2.80;;
14965;SDS011;7577;45.226;5.798;2023-04-01T02:08:29;5.40;;;2.80;;
14965;SDS011;7577;45.226;5.798;2023-04-01T02:11:02;5.47;;;2.80;;
14965;SDS011;7577;45.226;5.798;2023-04-01T02:13:35;4.37;;;2.60;;
14965;SDS011;7577;45.226;5.798;2023-04-01T02:16:14;3.53;;;2.40;;
14965;SDS011;7577;45.226;5.798;2023-04-01T02:18:48;4.73;;;2.53;;
14965;SDS011;7577;45.226;5.798;2023-04-01T02:21:20;5.47;;;2.50;;
14965;SDS011;7577;45.226;5.798;2023-04-01T02:23:52;5.23;;;2.10;;
14965;SDS011;7577;45.226;5.798;2023-04-01T02:26:24;5.73;;;2.80;;
14965;SDS011;7577;45.226;5.798;2023-04-01T02:28:55;4.10;;;2.40;;
14965;SDS011;7577;45.226;5.798;2023-04-01T02:31:28;4.60;;;2.33;;
14965;SDS011;7577;45.226;5.798;2023-04-01T02:33:58;5.70;;;2.60;;
14965;SDS011;7577;45.226;5.798;2023-04-01T02:36:30;3.50;;;2.07;;
14965;SDS011;7577;45.226;5.798;2023-04-01T02:39:04;3.97;;;2.10;;
14965;SDS011;7577;45.226;5.798;2023-04-01T02:41:39;3.50;;;2.17;;
14965;SDS011;7577;45.226;5.798;2023-04-01T02:44:09;4.83;;;2.40;;
14965;SDS011;7577;45.226;5.798;2023-04-01T02:46:41;3.30;;;2.10;;
14965;SDS011;7577;45.226;5.798;2023-04-01T02:49:11;5.37;;;2.33;;
14965;SDS011;7577;45.226;5.798;2023-04-01T02:51:49;3.50;;;2.10;;
14965;SDS011;7577;45.226;5.798;2023-04-01T02:54:19;4.13;;;2.10;;
14965;SDS011;7577;45.226;5.798;2023-04-01T02:56:49;3.77;;;2.10;;
14965;SDS011;7577;45.226;5.798;2023-04-01T02:59:19;3.80;;;2.20;;
14965;SDS011;7577;45.226;5.798;2023-04-01T03:01:49;3.77;;;2.10;;
14965;SDS011;7577;45.226;5.798;2023-04-01T03:04:27;5.73;;;2.23;;
14965;SDS011;7577;45.226;5.798;2023-04-01T03:06:57;3.27;;;2.00;;
14965;SDS011;7577;45.226;5.798;2023-04-01T03:09:27;3.00;;;1.97;;
14965;SDS011;7577;45.226;5.798;2023-04-01T03:11:57;3.60;;;1.80;;
14965;SDS011;7577;45.226;5.798;2023-04-01T03:14:27;4.00;;;2.00;;
14965;SDS011;7577;45.226;5.798;2023-04-01T03:16:57;3.63;;;1.90;;
14965;SDS011;7577;45.226;5.798;2023-04-01T03:19:35;3.60;;;1.80;;
14965;SDS011;7577;45.226;5.798;2023-04-01T03:22:05;3.63;;;1.77;;
14965;SDS011;7577;45.226;5.798;2023-04-01T03:24:37;3.93;;;2.03;;
14965;SDS011;7577;45.226;5.798;2023-04-01T03:27:07;4.23;;;2.00;;
14965;SDS011;7577;45.226;5.798;2023-04-01T03:29:37;3.27;;;2.07;;
14965;SDS011;7577;45.226;5.798;2023-04-01T03:32:07;3.03;;;1.77;;
14965;SDS011;7577;45.226;5.798;2023-04-01T03:34:37;3.23;;;1.77;;
14965;SDS011;7577;45.226;5.798;2023-04-01T03:37:07;2.70;;;1.70;;
14965;SDS011;7577;45.226;5.798;2023-04-01T03:39:39;4.93;;;2.13;;
14965;SDS011;7577;45.226;5.798;2023-04-01T03:42:08;3.83;;;2.07;;
14965;SDS011;7577;45.226;5.798;2023-04-01T03:44:38;2.90;;;1.60;;
14965;SDS011;7577;45.226;5.798;2023-04-01T03:47:08;3.30;;;1.70;;
14965;SDS011;7577;45.226;5.798;2023-04-01T03:49:38;2.60;;;1.77;;
14965;SDS011;7577;45.226;5.798;2023-04-01T03:52:09;3.63;;;1.80;;
14965;SDS011;7577;45.226;5.798;2023-04-01T03:54:40;2.83;;;1.60;;
14965;SDS011;7577;45.226;5.798;2023-04-01T03:57:10;3.27;;;1.90;;
14965;SDS011;7577;45.226;5.798;2023-04-01T03:59:51;2.33;;;1.60;;
14965;SDS011;7577;45.226;5.798;2023-04-01T04:02:21;2.60;;;1.40;;
14965;SDS011;7577;45.226;5.798;2023-04-01T04:04:51;2.33;;;1.40;;
14965;SDS011;7577;45.226;5.798;2023-04-01T04:07:21;3.27;;;1.80;;
14965;SDS011;7577;45.226;5.798;2023-04-01T04:09:51;3.67;;;1.60;;
14965;SDS011;7577;45.226;5.798;2023-04-01T04:12:21;2.00;;;1.57;;
14965;SDS011;7577;45.226;5.798;2023-04-01T04:14:51;2.60;;;1.47;;
14965;SDS011;7577;45.226;5.798;2023-04-01T04:17:21;2.20;;;1.40;;
14965;SDS011;7577;45.226;5.798;2023-04-01T04:19:52;3.00;;;1.63;;
14965;SDS011;7577;45.226;5.798;2023-04-01T04:22:21;2.67;;;1.30;;
14965;SDS011;7577;45.226;5.798;2023-04-01T04:24:59;4.07;;;1.53;;
14965;SDS011;7577;45.226;5.798;2023-04-01T04:27:29;2.70;;;1.63;;
14965;SDS011;7577;45.226;5.798;2023-04-01T04:30:00;3.33;;;1.40;;
14965;SDS011;7577;45.226;5.798;2023-04-01T04:32:37;2.90;;;1.50;;
14965;SDS011;7577;45.226;5.798;2023-04-01T04:35:09;2.33;;;1.63;;
14965;SDS011;7577;45.226;5.798;2023-04-01T04:37:39;2.50;;;1.70;;
14965;SDS011;7577;45.226;5.798;2023-04-01T04:40:09;2.50;;;1.37;;
14965;SDS011;7577;45.226;5.798;2023-04-01T04:42:40;1.90;;;1.30;;
14965;SDS011;7577;45.226;5.798;2023-04-01T04:45:10;3.30;;;1.30;;
14965;SDS011;7577;45.226;5.798;2023-04-01T04:47:48;2.43;;;1.63;;
14965;SDS011;7577;45.226;5.798;2023-04-01T04:50:18;2.17;;;1.50;;
14965;SDS011;7577;45.226;5.798;2023-04-01T04:52:48;4.00;;;1.47;;
14965;SDS011;7577;45.226;5.798;2023-04-01T04:55:19;4.60;;;1.60;;
14965;SDS011;7577;45.226;5.798;2023-04-01T04:57:50;3.30;;;1.40;;
14965;SDS011;7577;45.226;5.798;2023-04-01T05:00:20;2.30;;;1.27;;
14965;SDS011;7577;45.226;5.798;2023-04-01T05:02:50;3.53;;;1.63;;
14965;SDS011;7577;45.226;5.798;2023-04-01T05:05:20;1.90;;;1.30;;
14965;SDS011;7577;45.226;5.798;2023-04-01T05:07:50;3.40;;;1.40;;
14965;SDS011;7577;45.226;5.798;2023-04-01T05:10:20;3.63;;;1.77;;
14965;SDS011;7577;45.226;5.798;2023-04-01T05:12:50;4.07;;;1.50;;
14965;SDS011;7577;45.226;5.798;2023-04-01T05:15:20;2.77;;;1.30;;
14965;SDS011;7577;45.226;5.798;2023-04-01T05:17:50;2.80;;;1.70;;
14965;SDS011;7577;45.226;5.798;2023-04-01T05:20:20;2.07;;;1.43;;
14965;SDS011;7577;45.226;5.798;2023-04-01T05:22:53;1.97;;;1.40;;
14965;SDS011;7577;45.226;5.798;2023-04-01T05:25:24;1.60;;;1.40;;
14965;SDS011;7577;45.226;5.798;2023-04-01T05:28:03;3.87;;;1.80;;
14965;SDS011;7577;45.226;5.798;2023-04-01T05:30:33;2.70;;;1.67;;
14965;SDS011;7577;45.226;5.798;2023-04-01T05:33:03;3.70;;;1.40;;
14965;SDS011;7577;45.226;5.798;2023-04-01T05:35:33;2.23;;;1.60;;
14965;SDS011;7577;45.226;5.798;2023-04-01T05:38:03;2.03;;;1.53;;
14965;SDS011;7577;45.226;5.798;2023-04-01T05:40:33;2.13;;;1.53;;
14965;SDS011;7577;45.226;5.798;2023-04-01T05:43:12;4.23;;;1.63;;
14965;SDS011;7577;45.226;5.798;2023-04-01T05:45:42;4.40;;;1.60;;
14965;SDS011;7577;45.226;5.798;2023-04-01T05:48:12;1.80;;;1.27;;
14965;SDS011;7577;45.226;5.798;2023-04-01T05:50:43;2.43;;;1.40;;
14965;SDS011;7577;45.226;5.798;2023-04-01T05:53:13;3.17;;;1.43;;
14965;SDS011;7577;45.226;5.798;2023-04-01T05:55:43;2.20;;;1.40;;
14965;SDS011;7577;45.226;5.798;2023-04-01T05:58:13;3.07;;;1.70;;
14965;SDS011;7577;45.226;5.798;2023-04-01T06:00:43;4.83;;;1.50;;
14965;SDS011;7577;45.226;5.798;2023-04-01T06:03:14;2.40;;;1.50;;
14965;SDS011;7577;45.226;5.798;2023-04-01T06:05:44;2.73;;;1.30;;
14965;SDS011;7577;45.226;5.798;2023-04-01T06:08:15;3.57;;;1.30;;
14965;SDS011;7577;45.226;5.798;2023-04-01T06:11:00;3.60;;;1.50;;
14965;SDS011;7577;45.226;5.798;2023-04-01T06:13:39;2.23;;;1.50;;
14965;SDS011;7577;45.226;5.798;2023-04-01T06:16:15;3.77;;;1.47;;
14965;SDS011;7577;45.226;5.798;2023-04-01T06:19:06;5.23;;;1.27;;
14965;SDS011;7577;45.226;5.798;2023-04-01T06:22:01;2.47;;;1.20;;
14965;SDS011;7577;45.226;5.798;2023-04-01T06:25:04;2.13;;;1.20;;
14965;SDS011;7577;45.226;5.798;2023-04-01T06:27:46;2.70;;;1.50;;
14965;SDS011;7577;45.226;5.798;2023-04-01T06:30:34;2.63;;;1.70;;
14965;SDS011;7577;45.226;5.798;2023-04-01T06:33:19;3.73;;;1.57;;
14965;SDS011;7577;45.226;5.798;2023-04-01T06:38:58;2.00;;;1.23;;
14965;SDS011;7577;45.226;5.798;2023-04-01T06:41:39;1.57;;;1.20;;
14965;SDS011;7577;45.226;5.798;2023-04-01T06:44:20;2.30;;;1.20;;
14965;SDS011;7577;45.226;5.798;2023-04-01T06:46:55;2.30;;;1.30;;
14965;SDS011;7577;45.226;5.798;2023-04-01T06:49:33;1.57;;;1.30;;
14965;SDS011;7577;45.226;5.798;2023-04-01T06:52:10;1.93;;;1.20;;
14965;SDS011;7577;45.226;5.798;2023-04-01T06:54:44;2.13;;;1.20;;
14965;SDS011;7577;45.226;5.798;2023-04-01T06:57:20;2.63;;;1.20;;
14965;SDS011;7577;45.226;5.798;2023-04-01T06:59:52;2.40;;;1.50;;
14965;SDS011;7577;45.226;5.798;2023-04-01T07:02:28;2.53;;;1.17;;
14965;SDS011;7577;45.226;5.798;2023-04-01T07:04:59;2.07;;;1.50;;
14965;SDS011;7577;45.226;5.798;2023-04-01T07:07:33;2.27;;;1.37;;
14965;SDS011;7577;45.226;5.798;2023-04-01T07:10:09;2.00;;;1.30;;
14965;SDS011;7577;45.226;5.798;2023-04-01T07:12:42;1.53;;;1.23;;
14965;SDS011;7577;45.226;5.798;2023-04-01T07:15:20;1.97;;;1.20;;
14965;SDS011;7577;45.226;5.798;2023-04-01T07:17:53;1.53;;;1.00;;
14965;SDS011;7577;45.226;5.798;2023-04-01T07:20:27;1.87;;;1.20;;
14965;SDS011;7577;45.226;5.798;2023-04-01T07:22:59;2.60;;;1.17;;
14965;SDS011;7577;45.226;5.798;2023-04-01T07:25:33;2.03;;;1.10;;
14965;SDS011;7577;45.226;5.798;2023-04-01T07:28:12;1.50;;;0.93;;
14965;SDS011;7577;45.226;5.798;2023-04-01T07:30:47;1.97;;;1.10;;
14965;SDS011;7577;45.226;5.798;2023-04-01T07:33:21;1.60;;;1.10;;
14965;SDS011;7577;45.226;5.798;2023-04-01T07:35:54;1.70;;;1.17;;
14965;SDS011;7577;45.226;5.798;2023-04-01T07:38:28;2.67;;;1.20;;
14965;SDS011;7577;45.226;5.798;2023-04-01T07:41:02;2.50;;;1.10;;
14965;SDS011;7577;45.226;5.798;2023-04-01T07:43:37;1.97;;;1.30;;
14965;SDS011;7577;45.226;5.798;2023-04-01T07:46:14;3.00;;;1.37;;
14965;SDS011;7577;45.226;5.798;2023-04-01T07:48:49;1.83;;;1.30;;
14965;SDS011;7577;45.226;5.798;2023-04-01T07:51:23;2.17;;;0.90;;
14965;SDS011;7577;45.226;5.798;2023-04-01T07:53:57;2.23;;;1.27;;
14965;SDS011;7577;45.226;5.798;2023-04-01T07:56:31;2.40;;;1.10;;
14965;SDS011;7577;45.226;5.798;2023-04-01T07:59:05;1.33;;;1.07;;
14965;SDS011;7577;45.226;5.798;2023-04-01T08:01:39;1.17;;;0.87;;
14965;SDS011;7577;45.226;5.798;2023-04-01T08:04:15;1.43;;;1.00;;
14965;SDS011;7577;45.226;5.798;2023-04-01T08:06:56;1.73;;;0.80;;
14965;SDS011;7577;45.226;5.798;2023-04-01T08:09:37;1.20;;;0.87;;
14965;SDS011;7577;45.226;5.798;2023-04-01T08:12:12;1.40;;;1.13;;
14965;SDS011;7577;45.226;5.798;2023-04-01T08:14:51;2.37;;;1.17;;
14965;SDS011;7577;45.226;5.798;2023-04-01T08:17:28;2.07;;;1.00;;
14965;SDS011;7577;45.226;5.798;2023-04-01T08:20:05;1.20;;;0.90;;
14965;SDS011;7577;45.226;5.798;2023-04-01T08:22:43;1.40;;;0.83;;
14965;SDS011;7577;45.226;5.798;2023-04-01T08:25:17;1.57;;;1.07;;
14965;SDS011;7577;45.226;5.798;2023-04-01T08:27:58;1.20;;;1.00;;
14965;SDS011;7577;45.226;5.798;2023-04-01T08:30:33;1.60;;;1.10;;
14965;SDS011;7577;45.226;5.798;2023-04-01T08:33:05;1.87;;;1.20;;
14965;SDS011;7577;45.226;5.798;2023-04-01T08:35:39;1.37;;;0.93;;
14965;SDS011;7577;45.226;5.798;2023-04-01T08:38:19;1.27;;;1.17;;
14965;SDS011;7577;45.226;5.798;2023-04-01T08:40:54;1.90;;;1.00;;
14965;SDS011;7577;45.226;5.798;2023-04-01T08:43:42;1.70;;;1.03;;
14965;SDS011;7577;45.226;5.798;2023-04-01T08:49:18;1.90;;;1.20;;
14965;SDS011;7577;45.226;5.798;2023-04-01T08:52:00;2.07;;;0.97;;
14965;SDS011;7577;45.226;5.798;2023-04-01T08:54:49;1.43;;;0.90;;
14965;SDS011;7577;45.226;5.798;2023-04-01T08:57:44;1.60;;;0.80;;
14965;SDS011;7577;45.226;5.798;2023-04-01T09:00:20;1.70;;;1.00;;
14965;SDS011;7577;45.226;5.798;2023-04-01T09:02:58;1.87;;;1.10;;
14965;SDS011;7577;45.226;5.798;2023-04-01T09:05:37;1.63;;;1.00;;
14965;SDS011;7577;45.226;5.798;2023-04-01T09:08:18;1.73;;;1.10;;
14965;SDS011;7577;45.226;5.798;2023-04-01T09:10:57;1.43;;;1.00;;
14965;SDS011;7577;45.226;5.798;2023-04-01T09:13:39;1.47;;;0.90;;
14965;SDS011;7577;45.226;5.798;2023-04-01T09:16:28;1.40;;;0.90;;
14965;SDS011;7577;45.226;5.798;2023-04-01T09:19:24;1.30;;;1.00;;
14965;SDS011;7577;45.226;5.798;2023-04-01T09:22:10;1.17;;;1.00;;
14965;SDS011;7577;45.226;5.798;2023-04-01T09:28:25;1.90;;;1.10;;
14965;SDS011;7577;45.226;5.798;2023-04-01T09:34:05;2.50;;;1.10;;
14965;SDS011;7577;45.226;5.798;2023-04-01T09:37:00;1.93;;;1.10;;
14965;SDS011;7577;45.226;5.798;2023-04-01T09:39:37;1.87;;;0.90;;
14965;SDS011;7577;45.226;5.798;2023-04-01T09:42:16;1.40;;;0.97;;
14965;SDS011;7577;45.226;5.798;2023-04-01T09:44:56;1.93;;;1.03;;
14965;SDS011;7577;45.226;5.798;2023-04-01T09:47:33;1.33;;;1.00;;
14965;SDS011;7577;45.226;5.798;2023-04-01T09:50:16;2.00;;;1.00;;
14965;SDS011;7577;45.226;5.798;2023-04-01T09:53:01;1.77;;;0.93;;
14965;SDS011;7577;45.226;5.798;2023-04-01T09:55:49;1.77;;;1.10;;
14965;SDS011;7577;45.226;5.798;2023-04-01T10:02:05;0.90;;;0.80;;
14965;SDS011;7577;45.226;5.798;2023-04-01T10:04:47;1.33;;;0.77;;
14965;SDS011;7577;45.226;5.798;2023-04-01T10:07:46;2.30;;;1.10;;
14965;SDS011;7577;45.226;5.798;2023-04-01T10:17:07;1.27;;;0.77;;
14965;SDS011;7577;45.226;5.798;2023-04-01T10:20:10;0.77;;;0.70;;
14965;SDS011;7577;45.226;5.798;2023-04-01T10:26:20;0.90;;;0.73;;
14965;SDS011;7577;45.226;5.798;2023-04-01T10:49:08;0.97;;;0.83;;
14965;SDS011;7577;45.226;5.798;2023-04-01T10:52:21;1.77;;;0.90;;
14965;SDS011;7577;45.226;5.798;2023-04-01T10:55:01;1.27;;;0.87;;
14965;SDS011;7577;45.226;5.798;2023-04-01T10:57:50;2.53;;;1.00;;
14965;SDS011;7577;45.226;5.798;2023-04-01T11:00:51;1.13;;;0.80;;
14965;SDS011;7577;45.226;5.798;2023-04-01T11:03:35;1.60;;;0.93;;
14965;SDS011;7577;45.226;5.798;2023-04-01T11:06:26;1.93;;;0.80;;
14965;SDS011;7577;45.226;5.798;2023-04-01T11:09:18;1.07;;;0.83;;
14965;SDS011;7577;45.226;5.798;2023-04-01T11:12:10;1.10;;;0.80;;
14965;SDS011;7577;45.226;5.798;2023-04-01T11:21:20;1.37;;;0.90;;
14965;SDS011;7577;45.226;5.798;2023-04-01T11:24:22;1.07;;;0.90;;
14965;SDS011;7577;45.226;5.798;2023-04-01T11:27:29;2.93;;;0.90;;
14965;SDS011;7577;45.226;5.798;2023-04-01T11:33:22;0.87;;;0.70;;
14965;SDS011;7577;45.226;5.798;2023-04-01T11:36:01;1.00;;;0.60;;
14965;SDS011;7577;45.226;5.798;2023-04-01T11:38:45;1.37;;;0.90;;
14965;SDS011;7577;45.226;5.798;2023-04-01T11:41:31;1.57;;;0.80;;
14965;SDS011;7577;45.226;5.798;2023-04-01T11:44:13;1.10;;;0.70;;
14965;SDS011;7577;45.226;5.798;2023-04-01T11:49:56;1.07;;;0.80;;
14965;SDS011;7577;45.226;5.798;2023-04-01T11:52:46;0.87;;;0.80;;
14965;SDS011;7577;45.226;5.798;2023-04-01T11:55:28;1.17;;;0.70;;
14965;SDS011;7577;45.226;5.798;2023-04-01T11:58:23;10.10;;;1.80;;
14965;SDS011;7577;45.226;5.798;2023-04-01T12:01:14;6.73;;;1.33;;
14965;SDS011;7577;45.226;5.798;2023-04-01T12:04:10;5.13;;;1.13;;
14965;SDS011;7577;45.226;5.798;2023-04-01T12:06:52;6.90;;;1.10;;
14965;SDS011;7577;45.226;5.798;2023-04-01T12:09:34;10.10;;;1.10;;
14965;SDS011;7577;45.226;5.798;2023-04-01T12:12:12;5.80;;;1.40;;
14965;SDS011;7577;45.226;5.798;2023-04-01T12:14:57;4.67;;;0.90;;
14965;SDS011;7577;45.226;5.798;2023-04-01T12:17:33;4.13;;;1.10;;
14965;SDS011;7577;45.226;5.798;2023-04-01T12:20:14;8.63;;;1.47;;
14965;SDS011;7577;45.226;5.798;2023-04-01T12:22:53;6.03;;;1.17;;
14965;SDS011;7577;45.226;5.798;2023-04-01T12:25:29;5.13;;;1.20;;
14965;SDS011;7577;45.226;5.798;2023-04-01T12:28:18;2.93;;;0.87;;
14965;SDS011;7577;45.226;5.798;2023-04-01T12:30:52;2.17;;;1.00;;
14965;SDS011;7577;45.226;5.798;2023-04-01T12:33:31;4.20;;;1.20;;
14965;SDS011;7577;45.226;5.798;2023-04-01T12:36:13;3.73;;;1.33;;
14965;SDS011;7577;45.226;5.798;2023-04-01T12:38:58;2.50;;;1.00;;
14965;SDS011;7577;45.226;5.798;2023-04-01T12:41:31;1.63;;;1.00;;
14965;SDS011;7577;45.226;5.798;2023-04-01T12:44:15;2.97;;;1.20;;
14965;SDS011;7577;45.226;5.798;2023-04-01T12:47:04;3.23;;;1.10;;
14965;SDS011;7577;45.226;5.798;2023-04-01T12:52:44;2.60;;;1.00;;
14965;SDS011;7577;45.226;5.798;2023-04-01T12:55:39;2.23;;;1.00;;
14965;SDS011;7577;45.226;5.798;2023-04-01T13:01:44;1.43;;;0.90;;
14965;SDS011;7577;45.226;5.798;2023-04-01T13:04:38;3.00;;;1.10;;
14965;SDS011;7577;45.226;5.798;2023-04-01T13:10:15;3.03;;;1.10;;
14965;SDS011;7577;45.226;5.798;2023-04-01T13:12:58;3.67;;;1.37;;
14965;SDS011;7577;45.226;5.798;2023-04-01T13:15:32;1.47;;;0.90;;
14965;SDS011;7577;45.226;5.798;2023-04-01T13:18:10;2.33;;;0.80;;
14965;SDS011;7577;45.226;5.798;2023-04-01T13:20:46;2.83;;;0.90;;
14965;SDS011;7577;45.226;5.798;2023-04-01T13:23:23;2.40;;;0.90;;
14965;SDS011;7577;45.226;5.798;2023-04-01T13:25:58;0.87;;;0.80;;
14965;SDS011;7577;45.226;5.798;2023-04-01T13:28:32;0.70;;;0.60;;
14965;SDS011;7577;45.226;5.798;2023-04-01T13:31:05;3.03;;;1.20;;
14965;SDS011;7577;45.226;5.798;2023-04-01T13:33:39;1.50;;;0.87;;
14965;SDS011;7577;45.226;5.798;2023-04-01T13:36:14;3.20;;;0.90;;
14965;SDS011;7577;45.226;5.798;2023-04-01T13:39:00;1.77;;;0.80;;
14965;SDS011;7577;45.226;5.798;2023-04-01T13:41:42;1.77;;;0.73;;
14965;SDS011;7577;45.226;5.798;2023-04-01T13:44:19;2.23;;;0.90;;
14965;SDS011;7577;45.226;5.798;2023-04-01T13:46:57;1.50;;;0.70;;
14965;SDS011;7577;45.226;5.798;2023-04-01T13:49:46;1.07;;;0.73;;
14965;SDS011;7577;45.226;5.798;2023-04-01T13:52:53;2.00;;;0.70;;
14965;SDS011;7577;45.226;5.798;2023-04-01T13:55:39;1.27;;;0.90;;
14965;SDS011;7577;45.226;5.798;2023-04-01T13:58:22;0.83;;;0.80;;
14965;SDS011;7577;45.226;5.798;2023-04-01T14:00:56;2.30;;;0.80;;
14965;SDS011;7577;45.226;5.798;2023-04-01T14:03:33;1.70;;;1.00;;
14965;SDS011;7577;45.226;5.798;2023-04-01T14:06:12;1.30;;;0.70;;
14965;SDS011;7577;45.226;5.798;2023-04-01T14:09:10;1.50;;;0.80;;
14965;SDS011;7577;45.226;5.798;2023-04-01T14:11:47;2.50;;;0.90;;
14965;SDS011;7577;45.226;5.798;2023-04-01T14:14:21;1.37;;;0.73;;
14965;SDS011;7577;45.226;5.798;2023-04-01T14:17:08;1.17;;;0.70;;
14965;SDS011;7577;45.226;5.798;2023-04-01T14:20:04;9.40;;;1.37;;
14965;SDS011;7577;45.226;5.798;2023-04-01T14:22:49;4.00;;;0.70;;
14965;SDS011;7577;45.226;5.798;2023-04-01T14:25:27;2.40;;;0.70;;
14965;SDS011;7577;45.226;5.798;2023-04-01T14:28:09;0.60;;;0.40;;
14965;SDS011;7577;45.226;5.798;2023-04-01T14:30:45;3.90;;;0.67;;
14965;SDS011;7577;45.226;5.798;2023-04-01T14:33:23;1.70;;;0.50;;
14965;SDS011;7577;45.226;5.798;2023-04-01T14:36:01;3.40;;;0.40;;
14965;SDS011;7577;45.226;5.798;2023-04-01T14:38:51;3.27;;;0.50;;
14965;SDS011;7577;45.226;5.798;2023-04-01T14:41:28;1.80;;;0.67;;
14965;SDS011;7577;45.226;5.798;2023-04-01T14:44:12;1.20;;;0.50;;
14965;SDS011;7577;45.226;5.798;2023-04-01T14:47:13;1.43;;;0.70;;
14965;SDS011;7577;45.226;5.798;2023-04-01T14:49:52;0.40;;;0.40;;
14965;SDS011;7577;45.226;5.798;2023-04-01T14:52:27;1.53;;;0.60;;
14965;SDS011;7577;45.226;5.798;2023-04-01T14:54:58;1.33;;;0.43;;
14965;SDS011;7577;45.226;5.798;2023-04-01T14:57:36;0.50;;;0.50;;
14965;SDS011;7577;45.226;5.798;2023-04-01T15:00:12;0.90;;;0.50;;
14965;SDS011;7577;45.226;5.798;2023-04-01T15:02:50;1.40;;;0.50;;
14965;SDS011;7577;45.226;5.798;2023-04-01T15:05:27;1.27;;;0.60;;
14965;SDS011;7577;45.226;5.798;2023-04-01T15:08:21;1.00;;;0.50;;
14965;SDS011;7577;45.226;5.798;2023-04-01T15:14:01;1.17;;;0.50;;
14965;SDS011;7577;45.226;5.798;2023-04-01T15:16:55;1.43;;;0.30;;
14965;SDS011;7577;45.226;5.798;2023-04-01T15:19:37;1.33;;;0.50;;
14965;SDS011;7577;45.226;5.798;2023-04-01T15:22:23;0.57;;;0.40;;
14965;SDS011;7577;45.226;5.798;2023-04-01T15:25:03;0.63;;;0.57;;
14965;SDS011;7577;45.226;5.798;2023-04-01T15:27:50;0.50;;;0.40;;
14965;SDS011;7577;45.226;5.798;2023-04-01T15:30:28;5.37;;;0.67;;
14965;SDS011;7577;45.226;5.798;2023-04-01T15:33:14;0.70;;;0.33;;
14965;SDS011;7577;45.226;5.798;2023-04-01T15:35:50;0.73;;;0.60;;
14965;SDS011;7577;45.226;5.798;2023-04-01T15:38:26;1.03;;;0.43;;
14965;SDS011;7577;45.226;5.798;2023-04-01T15:41:03;1.27;;;0.50;;
14965;SDS011;7577;45.226;5.798;2023-04-01T15:43:41;1.47;;;0.50;;
14965;SDS011;7577;45.226;5.798;2023-04-01T15:46:16;0.60;;;0.30;;
14965;SDS011;7577;45.226;5.798;2023-04-01T15:49:03;1.63;;;0.50;;
14965;SDS011;7577;45.226;5.798;2023-04-01T15:51:48;0.40;;;0.30;;
14965;SDS011;7577;45.226;5.798;2023-04-01T15:54:27;1.00;;;0.60;;
14965;SDS011;7577;45.226;5.798;2023-04-01T15:57:11;0.53;;;0.50;;
14965;SDS011;7577;45.226;5.798;2023-04-01T15:59:56;1.20;;;0.40;;
14965;SDS011;7577;45.226;5.798;2023-04-01T16:02:36;0.83;;;0.47;;
14965;SDS011;7577;45.226;5.798;2023-04-01T16:05:11;0.83;;;0.40;;
14965;SDS011;7577;45.226;5.798;2023-04-01T16:07:53;0.60;;;0.40;;
14965;SDS011;7577;45.226;5.798;2023-04-01T16:10:58;0.50;;;0.40;;
14965;SDS011;7577;45.226;5.798;2023-04-01T16:13:46;0.50;;;0.37;;
14965;SDS011;7577;45.226;5.798;2023-04-01T16:16:28;0.60;;;0.40;;
14965;SDS011;7577;45.226;5.798;2023-04-01T16:19:17;0.50;;;0.50;;
14965;SDS011;7577;45.226;5.798;2023-04-01T16:21:57;0.90;;;0.70;;
14965;SDS011;7577;45.226;5.798;2023-04-01T16:24:35;0.83;;;0.50;;
14965;SDS011;7577;45.226;5.798;2023-04-01T16:27:09;2.43;;;0.73;;
14965;SDS011;7577;45.226;5.798;2023-04-01T16:29:45;0.77;;;0.50;;
14965;SDS011;7577;45.226;5.798;2023-04-01T16:32:21;0.87;;;0.50;;
14965;SDS011;7577;45.226;5.798;2023-04-01T16:35:03;0.50;;;0.40;;
14965;SDS011;7577;45.226;5.798;2023-04-01T16:37:42;0.70;;;0.40;;
14965;SDS011;7577;45.226;5.798;2023-04-01T16:40:16;0.40;;;0.40;;
14965;SDS011;7577;45.226;5.798;2023-04-01T16:42:48;0.40;;;0.30;;
14965;SDS011;7577;45.226;5.798;2023-04-01T16:45:23;0.70;;;0.43;;
14965;SDS011;7577;45.226;5.798;2023-04-01T16:47:58;0.40;;;0.37;;
14965;SDS011;7577;45.226;5.798;2023-04-01T16:50:39;0.57;;;0.53;;
14965;SDS011;7577;45.226;5.798;2023-04-01T16:53:13;1.33;;;0.50;;
14965;SDS011;7577;45.226;5.798;2023-04-01T16:55:46;1.30;;;0.60;;
14965;SDS011;7577;45.226;5.798;2023-04-01T16:58:23;0.70;;;0.50;;
14965;SDS011;7577;45.226;5.798;2023-04-01T17:00:58;0.83;;;0.50;;
14965;SDS011;7577;45.226;5.798;2023-04-01T17:03:36;0.90;;;0.50;;
14965;SDS011;7577;45.226;5.798;2023-04-01T17:06:13;0.60;;;0.47;;
14965;SDS011;7577;45.226;5.798;2023-04-01T17:08:52;0.40;;;0.30;;
14965;SDS011;7577;45.226;5.798;2023-04-01T17:11:31;0.80;;;0.40;;
14965;SDS011;7577;45.226;5.798;2023-04-01T17:14:06;0.40;;;0.40;;
14965;SDS011;7577;45.226;5.798;2023-04-01T17:16:53;0.43;;;0.40;;
14965;SDS011;7577;45.226;5.798;2023-04-01T17:19:46;1.70;;;0.43;;